sensor_id;sensor_type;location;lat;lon;timestamp;P1;durP1;ratioP1;P2;durP2;ratioP2
18818;SDS011;9537;45.594;9.294;2023-05-16T00:00:33;8.13;;;6.33;;
18818;SDS011;9537;45.594;9.294;2023-05-16T00:01:35;6.87;;;6.27;;
18818;SDS011;9537;45.594;9.294;2023-05-16T00:02:37;6.73;;;6.07;;
18818;SDS011;9537;45.594;9.294;2023-05-16T00:03:38;7.33;;;6.60;;
18818;SDS011;9537;45.594;9.294;2023-05-16T00:04:41;8.87;;;6.93;;
18818;SDS011;9537;45.594;9.294;2023-05-16T00:05:42;6.87;;;6.00;;
18818;SDS011;9537;45.594;9.294;2023-05-16T00:06:45;8.87;;;6.60;;
18818;SDS011;9537;45.594;9.294;2023-05-16T00:07:46;7.73;;;6.03;;
18818;SDS011;9537;45.594;9.294;2023-05-16T00:08:48;7.80;;;6.10;;
18818;SDS011;9537;45.594;9.294;2023-05-16T00:09:49;6.70;;;6.10;;
18818;SDS011;9537;45.594;9.294;2023-05-16T00:10:51;7.10;;;6.13;;
18818;SDS011;9537;45.594;9.294;2023-05-16T00:11:52;6.67;;;5.90;;
18818;SDS011;9537;45.594;9.294;2023-05-16T00:12:54;6.40;;;5.80;;
18818;SDS011;9537;45.594;9.294;2023-05-16T00:13:56;7.17;;;5.83;;
18818;SDS011;9537;45.594;9.294;2023-05-16T00:14:58;10.17;;;6.33;;
18818;SDS011;9537;45.594;9.294;2023-05-16T00:16:01;7.47;;;6.77;;
18818;SDS011;9537;45.594;9.294;2023-05-16T00:17:04;8.17;;;6.70;;
18818;SDS011;9537;45.594;9.294;2023-05-16T00:18:10;6.23;;;5.67;;
18818;SDS011;9537;45.594;9.294;2023-05-16T00:19:15;7.43;;;5.87;;
18818;SDS011;9537;45.594;9.294;2023-05-16T00:20:16;7.10;;;5.93;;
18818;SDS011;9537;45.594;9.294;2023-05-16T00:21:22;6.90;;;5.97;;
18818;SDS011;9537;45.594;9.294;2023-05-16T00:22:24;7.10;;;6.17;;
18818;SDS011;9537;45.594;9.294;2023-05-16T00:23:26;7.60;;;6.57;;
18818;SDS011;9537;45.594;9.294;2023-05-16T00:24:27;8.50;;;6.30;;
18818;SDS011;9537;45.594;9.294;2023-05-16T00:25:29;8.70;;;6.57;;
18818;SDS011;9537;45.594;9.294;2023-05-16T00:26:30;10.00;;;6.87;;
18818;SDS011;9537;45.594;9.294;2023-05-16T00:27:33;7.30;;;6.60;;
18818;SDS011;9537;45.594;9.294;2023-05-16T00:28:34;6.50;;;5.80;;
18818;SDS011;9537;45.594;9.294;2023-05-16T00:29:37;8.50;;;6.10;;
18818;SDS011;9537;45.594;9.294;2023-05-16T00:30:38;8.80;;;6.10;;
18818;SDS011;9537;45.594;9.294;2023-05-16T00:31:41;6.90;;;6.20;;
18818;SDS011;9537;45.594;9.294;2023-05-16T00:32:42;6.90;;;6.20;;
18818;SDS011;9537;45.594;9.294;2023-05-16T00:33:44;9.00;;;6.23;;
18818;SDS011;9537;45.594;9.294;2023-05-16T00:34:45;7.27;;;6.47;;
18818;SDS011;9537;45.594;9.294;2023-05-16T00:35:47;7.10;;;6.40;;
18818;SDS011;9537;45.594;9.294;2023-05-16T00:36:48;6.77;;;6.07;;
18818;SDS011;9537;45.594;9.294;2023-05-16T00:37:50;6.90;;;5.90;;
18818;SDS011;9537;45.594;9.294;2023-05-16T00:38:52;6.80;;;6.10;;
18818;SDS011;9537;45.594;9.294;2023-05-16T00:39:54;6.07;;;5.57;;
18818;SDS011;9537;45.594;9.294;2023-05-16T00:40:55;6.23;;;5.63;;
18818;SDS011;9537;45.594;9.294;2023-05-16T00:41:57;6.33;;;5.73;;
18818;SDS011;9537;45.594;9.294;2023-05-16T00:42:58;5.53;;;5.03;;
18818;SDS011;9537;45.594;9.294;2023-05-16T00:44:00;5.77;;;5.27;;
18818;SDS011;9537;45.594;9.294;2023-05-16T00:45:01;5.53;;;5.03;;
18818;SDS011;9537;45.594;9.294;2023-05-16T00:46:03;5.87;;;5.27;;
18818;SDS011;9537;45.594;9.294;2023-05-16T00:47:06;10.97;;;6.00;;
18818;SDS011;9537;45.594;9.294;2023-05-16T00:48:08;6.17;;;5.57;;
18818;SDS011;9537;45.594;9.294;2023-05-16T00:49:09;6.23;;;5.63;;
18818;SDS011;9537;45.594;9.294;2023-05-16T00:50:12;6.30;;;5.70;;
18818;SDS011;9537;45.594;9.294;2023-05-16T00:51:13;6.03;;;5.20;;
18818;SDS011;9537;45.594;9.294;2023-05-16T00:52:15;7.50;;;6.33;;
18818;SDS011;9537;45.594;9.294;2023-05-16T00:53:16;7.10;;;6.40;;
18818;SDS011;9537;45.594;9.294;2023-05-16T00:54:19;7.33;;;6.63;;
18818;SDS011;9537;45.594;9.294;2023-05-16T00:55:22;7.40;;;6.37;;
18818;SDS011;9537;45.594;9.294;2023-05-16T00:56:24;8.30;;;6.87;;
18818;SDS011;9537;45.594;9.294;2023-05-16T00:57:25;7.73;;;6.10;;
18818;SDS011;9537;45.594;9.294;2023-05-16T00:58:28;7.43;;;5.93;;
18818;SDS011;9537;45.594;9.294;2023-05-16T00:59:30;8.27;;;6.43;;
18818;SDS011;9537;45.594;9.294;2023-05-16T01:00:32;7.10;;;6.40;;
18818;SDS011;9537;45.594;9.294;2023-05-16T01:01:33;7.47;;;6.63;;
18818;SDS011;9537;45.594;9.294;2023-05-16T01:02:38;7.27;;;6.57;;
18818;SDS011;9537;45.594;9.294;2023-05-16T01:03:39;8.73;;;7.07;;
18818;SDS011;9537;45.594;9.294;2023-05-16T01:04:43;7.73;;;6.93;;
18818;SDS011;9537;45.594;9.294;2023-05-16T01:05:45;7.07;;;6.37;;
18818;SDS011;9537;45.594;9.294;2023-05-16T01:06:49;7.23;;;6.53;;
18818;SDS011;9537;45.594;9.294;2023-05-16T01:07:50;8.87;;;7.00;;
18818;SDS011;9537;45.594;9.294;2023-05-16T01:08:52;7.33;;;6.63;;
18818;SDS011;9537;45.594;9.294;2023-05-16T01:09:53;6.43;;;5.73;;
18818;SDS011;9537;45.594;9.294;2023-05-16T01:10:58;8.97;;;6.40;;
18818;SDS011;9537;45.594;9.294;2023-05-16T01:12:05;6.57;;;5.90;;
18818;SDS011;9537;45.594;9.294;2023-05-16T01:13:14;8.57;;;6.23;;
18818;SDS011;9537;45.594;9.294;2023-05-16T01:14:21;6.93;;;5.97;;
18818;SDS011;9537;45.594;9.294;2023-05-16T01:15:29;8.07;;;5.23;;
18818;SDS011;9537;45.594;9.294;2023-05-16T01:16:38;6.60;;;5.87;;
18818;SDS011;9537;45.594;9.294;2023-05-16T01:17:52;9.53;;;5.67;;
18818;SDS011;9537;45.594;9.294;2023-05-16T01:19:00;6.40;;;5.80;;
18818;SDS011;9537;45.594;9.294;2023-05-16T01:20:11;8.03;;;5.80;;
18818;SDS011;9537;45.594;9.294;2023-05-16T01:21:23;5.93;;;5.33;;
18818;SDS011;9537;45.594;9.294;2023-05-16T01:22:45;5.63;;;5.13;;
18818;SDS011;9537;45.594;9.294;2023-05-16T01:23:55;6.73;;;6.00;;
18818;SDS011;9537;45.594;9.294;2023-05-16T01:25:04;6.43;;;5.83;;
18818;SDS011;9537;45.594;9.294;2023-05-16T01:26:24;8.27;;;6.40;;
18818;SDS011;9537;45.594;9.294;2023-05-16T01:27:27;6.40;;;5.80;;
18818;SDS011;9537;45.594;9.294;2023-05-16T01:28:30;5.77;;;5.27;;
18818;SDS011;9537;45.594;9.294;2023-05-16T01:29:32;6.27;;;5.67;;
18818;SDS011;9537;45.594;9.294;2023-05-16T01:30:34;6.13;;;5.60;;
18818;SDS011;9537;45.594;9.294;2023-05-16T01:31:37;6.77;;;5.20;;
18818;SDS011;9537;45.594;9.294;2023-05-16T01:32:39;6.80;;;5.97;;
18818;SDS011;9537;45.594;9.294;2023-05-16T01:33:40;5.93;;;5.43;;
18818;SDS011;9537;45.594;9.294;2023-05-16T01:34:42;6.93;;;6.23;;
18818;SDS011;9537;45.594;9.294;2023-05-16T01:35:46;7.43;;;6.73;;
18818;SDS011;9537;45.594;9.294;2023-05-16T01:37:05;8.10;;;6.30;;
18818;SDS011;9537;45.594;9.294;2023-05-16T01:38:17;6.60;;;5.80;;
18818;SDS011;9537;45.594;9.294;2023-05-16T01:39:26;6.23;;;5.53;;
18818;SDS011;9537;45.594;9.294;2023-05-16T01:40:34;7.57;;;6.03;;
18818;SDS011;9537;45.594;9.294;2023-05-16T01:41:42;6.67;;;5.30;;
18818;SDS011;9537;45.594;9.294;2023-05-16T01:42:52;5.73;;;5.23;;
18818;SDS011;9537;45.594;9.294;2023-05-16T01:43:56;5.57;;;5.07;;
18818;SDS011;9537;45.594;9.294;2023-05-16T01:45:02;7.53;;;5.80;;
18818;SDS011;9537;45.594;9.294;2023-05-16T01:46:13;6.70;;;5.50;;
18818;SDS011;9537;45.594;9.294;2023-05-16T01:47:16;6.37;;;5.70;;
18818;SDS011;9537;45.594;9.294;2023-05-16T01:48:21;7.70;;;5.67;;
18818;SDS011;9537;45.594;9.294;2023-05-16T01:49:40;7.77;;;5.60;;
18818;SDS011;9537;45.594;9.294;2023-05-16T01:50:48;6.83;;;6.13;;
18818;SDS011;9537;45.594;9.294;2023-05-16T01:51:57;7.60;;;5.57;;
18818;SDS011;9537;45.594;9.294;2023-05-16T01:53:03;6.10;;;5.50;;
18818;SDS011;9537;45.594;9.294;2023-05-16T01:54:10;7.40;;;5.80;;
18818;SDS011;9537;45.594;9.294;2023-05-16T01:55:14;6.63;;;6.03;;
18818;SDS011;9537;45.594;9.294;2023-05-16T01:56:18;6.97;;;6.27;;
18818;SDS011;9537;45.594;9.294;2023-05-16T01:57:24;8.07;;;6.80;;
18818;SDS011;9537;45.594;9.294;2023-05-16T01:58:27;7.03;;;6.40;;
18818;SDS011;9537;45.594;9.294;2023-05-16T01:59:33;13.07;;;5.80;;
18818;SDS011;9537;45.594;9.294;2023-05-16T02:00:35;7.23;;;5.90;;
18818;SDS011;9537;45.594;9.294;2023-05-16T02:01:37;9.13;;;6.03;;
18818;SDS011;9537;45.594;9.294;2023-05-16T02:02:38;6.23;;;5.63;;
18818;SDS011;9537;45.594;9.294;2023-05-16T02:03:40;8.67;;;6.43;;
18818;SDS011;9537;45.594;9.294;2023-05-16T02:04:41;7.20;;;6.23;;
18818;SDS011;9537;45.594;9.294;2023-05-16T02:05:43;6.27;;;5.67;;
18818;SDS011;9537;45.594;9.294;2023-05-16T02:06:44;6.23;;;5.63;;
18818;SDS011;9537;45.594;9.294;2023-05-16T02:07:46;6.83;;;6.23;;
18818;SDS011;9537;45.594;9.294;2023-05-16T02:08:48;8.63;;;6.27;;
18818;SDS011;9537;45.594;9.294;2023-05-16T02:09:50;7.83;;;6.60;;
18818;SDS011;9537;45.594;9.294;2023-05-16T02:10:51;7.90;;;6.67;;
18818;SDS011;9537;45.594;9.294;2023-05-16T02:11:54;7.13;;;6.50;;
18818;SDS011;9537;45.594;9.294;2023-05-16T02:12:56;6.87;;;6.27;;
18818;SDS011;9537;45.594;9.294;2023-05-16T02:13:58;6.60;;;6.00;;
18818;SDS011;9537;45.594;9.294;2023-05-16T02:14:59;11.93;;;6.40;;
18818;SDS011;9537;45.594;9.294;2023-05-16T02:16:01;7.33;;;6.10;;
18818;SDS011;9537;45.594;9.294;2023-05-16T02:17:03;7.27;;;6.27;;
18818;SDS011;9537;45.594;9.294;2023-05-16T02:18:05;6.60;;;6.00;;
18818;SDS011;9537;45.594;9.294;2023-05-16T02:19:06;7.00;;;6.30;;
18818;SDS011;9537;45.594;9.294;2023-05-16T02:20:09;7.50;;;6.30;;
18818;SDS011;9537;45.594;9.294;2023-05-16T02:21:12;7.40;;;5.70;;
18818;SDS011;9537;45.594;9.294;2023-05-16T02:22:13;7.17;;;5.90;;
18818;SDS011;9537;45.594;9.294;2023-05-16T02:23:15;6.87;;;6.17;;
18818;SDS011;9537;45.594;9.294;2023-05-16T02:24:16;6.27;;;5.67;;
18818;SDS011;9537;45.594;9.294;2023-05-16T02:25:18;5.53;;;5.03;;
18818;SDS011;9537;45.594;9.294;2023-05-16T02:26:20;6.37;;;5.77;;
18818;SDS011;9537;45.594;9.294;2023-05-16T02:27:21;6.90;;;6.03;;
18818;SDS011;9537;45.594;9.294;2023-05-16T02:28:24;6.47;;;5.87;;
18818;SDS011;9537;45.594;9.294;2023-05-16T02:29:26;6.37;;;5.77;;
18818;SDS011;9537;45.594;9.294;2023-05-16T02:30:27;6.97;;;6.37;;
18818;SDS011;9537;45.594;9.294;2023-05-16T02:31:30;7.27;;;5.50;;
18818;SDS011;9537;45.594;9.294;2023-05-16T02:32:32;7.03;;;6.33;;
18818;SDS011;9537;45.594;9.294;2023-05-16T02:33:34;6.60;;;5.90;;
18818;SDS011;9537;45.594;9.294;2023-05-16T02:34:35;6.73;;;5.60;;
18818;SDS011;9537;45.594;9.294;2023-05-16T02:35:37;6.57;;;5.70;;
18818;SDS011;9537;45.594;9.294;2023-05-16T02:36:38;6.13;;;5.53;;
18818;SDS011;9537;45.594;9.294;2023-05-16T02:37:40;6.33;;;5.70;;
18818;SDS011;9537;45.594;9.294;2023-05-16T02:38:41;7.97;;;6.63;;
18818;SDS011;9537;45.594;9.294;2023-05-16T02:39:43;6.23;;;5.60;;
18818;SDS011;9537;45.594;9.294;2023-05-16T02:40:44;7.43;;;5.83;;
18818;SDS011;9537;45.594;9.294;2023-05-16T02:41:46;6.50;;;5.90;;
18818;SDS011;9537;45.594;9.294;2023-05-16T02:42:47;6.43;;;5.83;;
18818;SDS011;9537;45.594;9.294;2023-05-16T02:43:50;6.13;;;5.63;;
18818;SDS011;9537;45.594;9.294;2023-05-16T02:44:51;8.03;;;5.80;;
18818;SDS011;9537;45.594;9.294;2023-05-16T02:45:54;8.70;;;6.40;;
18818;SDS011;9537;45.594;9.294;2023-05-16T02:46:55;9.17;;;6.97;;
18818;SDS011;9537;45.594;9.294;2023-05-16T02:47:57;8.13;;;5.90;;
18818;SDS011;9537;45.594;9.294;2023-05-16T02:48:58;6.67;;;6.07;;
18818;SDS011;9537;45.594;9.294;2023-05-16T02:50:01;8.13;;;5.80;;
18818;SDS011;9537;45.594;9.294;2023-05-16T02:51:02;8.00;;;6.53;;
18818;SDS011;9537;45.594;9.294;2023-05-16T02:52:05;7.13;;;6.43;;
18818;SDS011;9537;45.594;9.294;2023-05-16T02:53:07;7.80;;;6.57;;
18818;SDS011;9537;45.594;9.294;2023-05-16T02:54:09;6.90;;;6.00;;
18818;SDS011;9537;45.594;9.294;2023-05-16T02:55:10;6.47;;;5.83;;
18818;SDS011;9537;45.594;9.294;2023-05-16T02:56:12;7.80;;;6.47;;
18818;SDS011;9537;45.594;9.294;2023-05-16T02:57:14;6.73;;;5.80;;
18818;SDS011;9537;45.594;9.294;2023-05-16T02:58:16;8.90;;;6.97;;
18818;SDS011;9537;45.594;9.294;2023-05-16T02:59:19;8.37;;;5.73;;
18818;SDS011;9537;45.594;9.294;2023-05-16T03:00:24;7.47;;;6.77;;
18818;SDS011;9537;45.594;9.294;2023-05-16T03:01:25;6.90;;;6.20;;
18818;SDS011;9537;45.594;9.294;2023-05-16T03:02:27;6.67;;;6.07;;
18818;SDS011;9537;45.594;9.294;2023-05-16T03:03:28;6.63;;;6.03;;
18818;SDS011;9537;45.594;9.294;2023-05-16T03:04:30;6.13;;;5.53;;
18818;SDS011;9537;45.594;9.294;2023-05-16T03:05:31;9.40;;;6.80;;
18818;SDS011;9537;45.594;9.294;2023-05-16T03:06:33;6.90;;;6.27;;
18818;SDS011;9537;45.594;9.294;2023-05-16T03:07:34;7.63;;;6.27;;
18818;SDS011;9537;45.594;9.294;2023-05-16T03:08:37;6.50;;;5.80;;
18818;SDS011;9537;45.594;9.294;2023-05-16T03:09:38;6.93;;;6.33;;
18818;SDS011;9537;45.594;9.294;2023-05-16T03:10:40;6.97;;;6.27;;
18818;SDS011;9537;45.594;9.294;2023-05-16T03:11:41;8.43;;;6.67;;
18818;SDS011;9537;45.594;9.294;2023-05-16T03:12:43;7.53;;;6.03;;
18818;SDS011;9537;45.594;9.294;2023-05-16T03:13:45;7.57;;;6.60;;
18818;SDS011;9537;45.594;9.294;2023-05-16T03:14:49;6.27;;;5.67;;
18818;SDS011;9537;45.594;9.294;2023-05-16T03:15:51;6.73;;;6.13;;
18818;SDS011;9537;45.594;9.294;2023-05-16T03:16:53;6.50;;;5.90;;
18818;SDS011;9537;45.594;9.294;2023-05-16T03:17:54;6.70;;;6.10;;
18818;SDS011;9537;45.594;9.294;2023-05-16T03:18:57;6.67;;;5.97;;
18818;SDS011;9537;45.594;9.294;2023-05-16T03:19:58;6.20;;;5.67;;
18818;SDS011;9537;45.594;9.294;2023-05-16T03:21:00;6.70;;;5.40;;
18818;SDS011;9537;45.594;9.294;2023-05-16T03:22:02;5.47;;;4.97;;
18818;SDS011;9537;45.594;9.294;2023-05-16T03:23:05;7.70;;;5.50;;
18818;SDS011;9537;45.594;9.294;2023-05-16T03:24:07;5.90;;;5.37;;
18818;SDS011;9537;45.594;9.294;2023-05-16T03:25:10;8.07;;;5.97;;
18818;SDS011;9537;45.594;9.294;2023-05-16T03:26:11;6.80;;;5.60;;
18818;SDS011;9537;45.594;9.294;2023-05-16T03:27:13;7.00;;;6.30;;
18818;SDS011;9537;45.594;9.294;2023-05-16T03:28:15;7.00;;;6.30;;
18818;SDS011;9537;45.594;9.294;2023-05-16T03:29:17;7.10;;;6.40;;
18818;SDS011;9537;45.594;9.294;2023-05-16T03:30:20;7.03;;;6.33;;
18818;SDS011;9537;45.594;9.294;2023-05-16T03:31:23;6.97;;;6.10;;
18818;SDS011;9537;45.594;9.294;2023-05-16T03:32:24;6.37;;;5.77;;
18818;SDS011;9537;45.594;9.294;2023-05-16T03:33:26;7.20;;;6.50;;
18818;SDS011;9537;45.594;9.294;2023-05-16T03:34:27;7.27;;;6.57;;
18818;SDS011;9537;45.594;9.294;2023-05-16T03:35:29;10.40;;;6.90;;
18818;SDS011;9537;45.594;9.294;2023-05-16T03:36:30;10.07;;;7.30;;
18818;SDS011;9537;45.594;9.294;2023-05-16T03:37:32;7.20;;;6.50;;
18818;SDS011;9537;45.594;9.294;2023-05-16T03:38:33;6.63;;;6.03;;
18818;SDS011;9537;45.594;9.294;2023-05-16T03:39:35;8.03;;;6.53;;
18818;SDS011;9537;45.594;9.294;2023-05-16T03:40:36;7.10;;;6.40;;
18818;SDS011;9537;45.594;9.294;2023-05-16T03:41:38;6.93;;;6.23;;
18818;SDS011;9537;45.594;9.294;2023-05-16T03:42:40;9.07;;;6.80;;
18818;SDS011;9537;45.594;9.294;2023-05-16T03:43:42;8.77;;;7.20;;
18818;SDS011;9537;45.594;9.294;2023-05-16T03:44:44;7.67;;;6.87;;
18818;SDS011;9537;45.594;9.294;2023-05-16T03:45:48;7.73;;;6.87;;
18818;SDS011;9537;45.594;9.294;2023-05-16T03:46:49;6.93;;;6.23;;
18818;SDS011;9537;45.594;9.294;2023-05-16T03:47:52;6.50;;;5.77;;
18818;SDS011;9537;45.594;9.294;2023-05-16T03:48:53;5.47;;;5.00;;
18818;SDS011;9537;45.594;9.294;2023-05-16T03:49:55;5.40;;;5.00;;
18818;SDS011;9537;45.594;9.294;2023-05-16T03:50:56;7.43;;;5.17;;
18818;SDS011;9537;45.594;9.294;2023-05-16T03:51:58;5.47;;;4.97;;
18818;SDS011;9537;45.594;9.294;2023-05-16T03:52:59;6.87;;;5.33;;
18818;SDS011;9537;45.594;9.294;2023-05-16T03:54:01;6.07;;;5.50;;
18818;SDS011;9537;45.594;9.294;2023-05-16T03:55:03;7.33;;;6.03;;
18818;SDS011;9537;45.594;9.294;2023-05-16T03:56:05;6.43;;;5.83;;
18818;SDS011;9537;45.594;9.294;2023-05-16T03:57:07;7.83;;;5.27;;
18818;SDS011;9537;45.594;9.294;2023-05-16T03:58:09;7.00;;;6.30;;
18818;SDS011;9537;45.594;9.294;2023-05-16T03:59:11;7.37;;;6.40;;
18818;SDS011;9537;45.594;9.294;2023-05-16T04:00:13;7.97;;;6.47;;
18818;SDS011;9537;45.594;9.294;2023-05-16T04:01:16;7.27;;;6.57;;
18818;SDS011;9537;45.594;9.294;2023-05-16T04:02:18;8.80;;;6.47;;
18818;SDS011;9537;45.594;9.294;2023-05-16T04:03:19;9.77;;;7.17;;
18818;SDS011;9537;45.594;9.294;2023-05-16T04:04:27;7.63;;;6.87;;
18818;SDS011;9537;45.594;9.294;2023-05-16T04:05:29;7.73;;;6.97;;
18818;SDS011;9537;45.594;9.294;2023-05-16T04:06:31;8.07;;;7.27;;
18818;SDS011;9537;45.594;9.294;2023-05-16T04:07:32;8.17;;;7.00;;
18818;SDS011;9537;45.594;9.294;2023-05-16T04:08:34;7.63;;;6.87;;
18818;SDS011;9537;45.594;9.294;2023-05-16T04:09:35;9.17;;;6.97;;
18818;SDS011;9537;45.594;9.294;2023-05-16T04:10:37;9.17;;;6.90;;
18818;SDS011;9537;45.594;9.294;2023-05-16T04:11:38;8.53;;;7.20;;
18818;SDS011;9537;45.594;9.294;2023-05-16T04:12:40;6.93;;;6.23;;
18818;SDS011;9537;45.594;9.294;2023-05-16T04:13:41;7.27;;;6.50;;
18818;SDS011;9537;45.594;9.294;2023-05-16T04:14:43;7.20;;;6.03;;
18818;SDS011;9537;45.594;9.294;2023-05-16T04:15:44;7.67;;;6.00;;
18818;SDS011;9537;45.594;9.294;2023-05-16T04:16:48;7.20;;;6.30;;
18818;SDS011;9537;45.594;9.294;2023-05-16T04:17:49;7.00;;;6.10;;
18818;SDS011;9537;45.594;9.294;2023-05-16T04:18:51;7.03;;;6.33;;
18818;SDS011;9537;45.594;9.294;2023-05-16T04:19:52;7.73;;;6.87;;
18818;SDS011;9537;45.594;9.294;2023-05-16T04:20:55;6.87;;;6.27;;
18818;SDS011;9537;45.594;9.294;2023-05-16T04:21:56;7.20;;;6.50;;
18818;SDS011;9537;45.594;9.294;2023-05-16T04:22:58;7.10;;;6.40;;
18818;SDS011;9537;45.594;9.294;2023-05-16T04:23:59;8.13;;;7.27;;
18818;SDS011;9537;45.594;9.294;2023-05-16T04:25:01;6.87;;;6.17;;
18818;SDS011;9537;45.594;9.294;2023-05-16T04:26:02;10.40;;;7.47;;
18818;SDS011;9537;45.594;9.294;2023-05-16T04:27:05;9.17;;;6.80;;
18818;SDS011;9537;45.594;9.294;2023-05-16T04:28:08;7.50;;;6.80;;
18818;SDS011;9537;45.594;9.294;2023-05-16T04:29:10;8.87;;;6.57;;
18818;SDS011;9537;45.594;9.294;2023-05-16T04:30:11;8.70;;;7.23;;
18818;SDS011;9537;45.594;9.294;2023-05-16T04:31:14;8.70;;;7.17;;
18818;SDS011;9537;45.594;9.294;2023-05-16T04:33:48;7.87;;;6.00;;
18818;SDS011;9537;45.594;9.294;2023-05-16T04:34:50;6.13;;;5.53;;
18818;SDS011;9537;45.594;9.294;2023-05-16T04:35:53;8.57;;;7.60;;
18818;SDS011;9537;45.594;9.294;2023-05-16T04:36:54;9.17;;;7.53;;
18818;SDS011;9537;45.594;9.294;2023-05-16T04:37:56;7.13;;;6.43;;
18818;SDS011;9537;45.594;9.294;2023-05-16T04:38:58;7.63;;;6.83;;
18818;SDS011;9537;45.594;9.294;2023-05-16T04:40:00;7.30;;;6.60;;
18818;SDS011;9537;45.594;9.294;2023-05-16T04:41:01;6.80;;;6.10;;
18818;SDS011;9537;45.594;9.294;2023-05-16T04:42:03;8.10;;;7.30;;
18818;SDS011;9537;45.594;9.294;2023-05-16T04:43:05;8.20;;;7.40;;
18818;SDS011;9537;45.594;9.294;2023-05-16T04:44:07;9.23;;;7.27;;
18818;SDS011;9537;45.594;9.294;2023-05-16T04:45:10;7.60;;;6.83;;
18818;SDS011;9537;45.594;9.294;2023-05-16T04:46:13;6.97;;;6.27;;
18818;SDS011;9537;45.594;9.294;2023-05-16T04:47:14;9.27;;;7.00;;
18818;SDS011;9537;45.594;9.294;2023-05-16T04:48:18;8.23;;;6.97;;
18818;SDS011;9537;45.594;9.294;2023-05-16T04:49:19;6.73;;;5.90;;
18818;SDS011;9537;45.594;9.294;2023-05-16T04:50:21;7.87;;;7.07;;
18818;SDS011;9537;45.594;9.294;2023-05-16T04:51:22;9.77;;;6.67;;
18818;SDS011;9537;45.594;9.294;2023-05-16T04:52:25;9.83;;;6.87;;
18818;SDS011;9537;45.594;9.294;2023-05-16T04:53:26;9.00;;;6.57;;
18818;SDS011;9537;45.594;9.294;2023-05-16T04:54:28;11.20;;;6.53;;
18818;SDS011;9537;45.594;9.294;2023-05-16T04:55:29;7.50;;;6.77;;
18818;SDS011;9537;45.594;9.294;2023-05-16T04:56:32;7.67;;;6.97;;
18818;SDS011;9537;45.594;9.294;2023-05-16T04:57:33;7.67;;;6.83;;
18818;SDS011;9537;45.594;9.294;2023-05-16T04:58:36;7.23;;;6.33;;
18818;SDS011;9537;45.594;9.294;2023-05-16T04:59:37;8.40;;;6.30;;
18818;SDS011;9537;45.594;9.294;2023-05-16T05:00:39;8.13;;;6.50;;
18818;SDS011;9537;45.594;9.294;2023-05-16T05:01:41;7.10;;;6.50;;
18818;SDS011;9537;45.594;9.294;2023-05-16T05:02:42;8.77;;;7.43;;
18818;SDS011;9537;45.594;9.294;2023-05-16T05:03:46;12.17;;;7.80;;
18818;SDS011;9537;45.594;9.294;2023-05-16T05:04:47;10.37;;;7.60;;
18818;SDS011;9537;45.594;9.294;2023-05-16T05:05:49;8.23;;;7.43;;
18818;SDS011;9537;45.594;9.294;2023-05-16T05:06:51;8.87;;;7.97;;
18818;SDS011;9537;45.594;9.294;2023-05-16T05:07:53;9.83;;;8.27;;
18818;SDS011;9537;45.594;9.294;2023-05-16T05:08:55;9.10;;;8.13;;
18818;SDS011;9537;45.594;9.294;2023-05-16T05:09:57;8.97;;;7.80;;
18818;SDS011;9537;45.594;9.294;2023-05-16T05:10:59;11.90;;;8.93;;
18818;SDS011;9537;45.594;9.294;2023-05-16T05:12:01;9.73;;;8.00;;
18818;SDS011;9537;45.594;9.294;2023-05-16T05:13:02;8.83;;;7.93;;
18818;SDS011;9537;45.594;9.294;2023-05-16T05:14:04;8.60;;;7.30;;
18818;SDS011;9537;45.594;9.294;2023-05-16T05:15:05;8.10;;;7.30;;
18818;SDS011;9537;45.594;9.294;2023-05-16T05:16:08;12.67;;;7.90;;
18818;SDS011;9537;45.594;9.294;2023-05-16T05:17:09;8.90;;;8.00;;
18818;SDS011;9537;45.594;9.294;2023-05-16T05:18:11;10.30;;;8.30;;
18818;SDS011;9537;45.594;9.294;2023-05-16T05:19:13;9.97;;;8.10;;
18818;SDS011;9537;45.594;9.294;2023-05-16T05:20:15;9.93;;;7.40;;
18818;SDS011;9537;45.594;9.294;2023-05-16T05:21:16;9.53;;;8.53;;
18818;SDS011;9537;45.594;9.294;2023-05-16T05:22:19;8.90;;;8.00;;
18818;SDS011;9537;45.594;9.294;2023-05-16T05:23:20;7.40;;;6.70;;
18818;SDS011;9537;45.594;9.294;2023-05-16T05:24:23;9.10;;;8.20;;
18818;SDS011;9537;45.594;9.294;2023-05-16T05:25:24;9.50;;;7.80;;
18818;SDS011;9537;45.594;9.294;2023-05-16T05:26:27;9.67;;;8.77;;
18818;SDS011;9537;45.594;9.294;2023-05-16T05:27:28;9.50;;;8.50;;
18818;SDS011;9537;45.594;9.294;2023-05-16T05:28:30;11.63;;;9.73;;
18818;SDS011;9537;45.594;9.294;2023-05-16T05:29:33;11.20;;;10.00;;
18818;SDS011;9537;45.594;9.294;2023-05-16T05:30:34;10.63;;;9.50;;
18818;SDS011;9537;45.594;9.294;2023-05-16T05:31:36;11.23;;;9.33;;
18818;SDS011;9537;45.594;9.294;2023-05-16T05:32:37;10.87;;;9.33;;
18818;SDS011;9537;45.594;9.294;2023-05-16T05:33:39;13.60;;;9.13;;
18818;SDS011;9537;45.594;9.294;2023-05-16T05:34:43;11.10;;;9.07;;
18818;SDS011;9537;45.594;9.294;2023-05-16T05:35:45;11.77;;;9.90;;
18818;SDS011;9537;45.594;9.294;2023-05-16T05:36:46;10.33;;;8.90;;
18818;SDS011;9537;45.594;9.294;2023-05-16T05:37:48;10.63;;;9.57;;
18818;SDS011;9537;45.594;9.294;2023-05-16T05:38:49;10.00;;;8.43;;
18818;SDS011;9537;45.594;9.294;2023-05-16T05:39:52;10.17;;;9.10;;
18818;SDS011;9537;45.594;9.294;2023-05-16T05:40:53;9.77;;;8.73;;
18818;SDS011;9537;45.594;9.294;2023-05-16T05:41:56;12.10;;;9.37;;
18818;SDS011;9537;45.594;9.294;2023-05-16T05:42:58;11.00;;;9.90;;
18818;SDS011;9537;45.594;9.294;2023-05-16T05:44:00;14.83;;;10.40;;
18818;SDS011;9537;45.594;9.294;2023-05-16T05:45:01;13.37;;;10.23;;
18818;SDS011;9537;45.594;9.294;2023-05-16T05:46:04;10.53;;;9.50;;
18818;SDS011;9537;45.594;9.294;2023-05-16T05:47:06;10.13;;;9.13;;
18818;SDS011;9537;45.594;9.294;2023-05-16T05:48:08;11.47;;;10.10;;
18818;SDS011;9537;45.594;9.294;2023-05-16T05:49:10;9.77;;;8.77;;
18818;SDS011;9537;45.594;9.294;2023-05-16T05:50:13;11.23;;;8.87;;
18818;SDS011;9537;45.594;9.294;2023-05-16T05:51:15;11.07;;;9.20;;
18818;SDS011;9537;45.594;9.294;2023-05-16T05:52:17;11.27;;;9.77;;
18818;SDS011;9537;45.594;9.294;2023-05-16T05:53:18;10.80;;;9.70;;
18818;SDS011;9537;45.594;9.294;2023-05-16T05:54:20;10.47;;;9.13;;
18818;SDS011;9537;45.594;9.294;2023-05-16T05:55:21;14.77;;;9.57;;
18818;SDS011;9537;45.594;9.294;2023-05-16T05:56:23;10.43;;;7.90;;
18818;SDS011;9537;45.594;9.294;2023-05-16T05:57:26;9.07;;;8.03;;
18818;SDS011;9537;45.594;9.294;2023-05-16T05:58:27;9.13;;;8.17;;
18818;SDS011;9537;45.594;9.294;2023-05-16T05:59:29;10.37;;;8.90;;
18818;SDS011;9537;45.594;9.294;2023-05-16T06:00:30;13.17;;;8.30;;
18818;SDS011;9537;45.594;9.294;2023-05-16T06:01:32;11.07;;;9.87;;
18818;SDS011;9537;45.594;9.294;2023-05-16T06:02:33;9.53;;;8.47;;
18818;SDS011;9537;45.594;9.294;2023-05-16T06:03:36;10.27;;;9.23;;
18818;SDS011;9537;45.594;9.294;2023-05-16T06:04:37;9.47;;;8.43;;
18818;SDS011;9537;45.594;9.294;2023-05-16T06:05:40;10.63;;;8.03;;
18818;SDS011;9537;45.594;9.294;2023-05-16T06:06:41;9.13;;;8.20;;
18818;SDS011;9537;45.594;9.294;2023-05-16T06:07:43;9.00;;;8.10;;
18818;SDS011;9537;45.594;9.294;2023-05-16T06:08:44;8.50;;;7.67;;
18818;SDS011;9537;45.594;9.294;2023-05-16T06:09:46;11.57;;;8.50;;
18818;SDS011;9537;45.594;9.294;2023-05-16T06:10:48;9.43;;;7.20;;
18818;SDS011;9537;45.594;9.294;2023-05-16T06:11:49;12.13;;;8.77;;
18818;SDS011;9537;45.594;9.294;2023-05-16T06:12:51;9.17;;;8.10;;
18818;SDS011;9537;45.594;9.294;2023-05-16T06:13:52;11.20;;;9.47;;
18818;SDS011;9537;45.594;9.294;2023-05-16T06:14:55;11.77;;;10.47;;
18818;SDS011;9537;45.594;9.294;2023-05-16T06:15:56;8.90;;;8.00;;
18818;SDS011;9537;45.594;9.294;2023-05-16T06:16:58;9.70;;;8.30;;
18818;SDS011;9537;45.594;9.294;2023-05-16T06:17:59;9.53;;;8.53;;
18818;SDS011;9537;45.594;9.294;2023-05-16T06:19:01;10.27;;;9.07;;
18818;SDS011;9537;45.594;9.294;2023-05-16T06:20:01;10.83;;;9.43;;
18818;SDS011;9537;45.594;9.294;2023-05-16T06:21:05;10.53;;;9.07;;
18818;SDS011;9537;45.594;9.294;2023-05-16T06:22:06;10.57;;;8.10;;
18818;SDS011;9537;45.594;9.294;2023-05-16T06:23:09;9.33;;;8.33;;
18818;SDS011;9537;45.594;9.294;2023-05-16T06:24:10;14.60;;;9.67;;